createdAt,value
2023-05-08T00:01:16.270Z,14.48
2023-05-08T00:03:43.530Z,18.83
2023-05-08T00:06:10.899Z,17.73
2023-05-08T00:08:37.937Z,16.25
2023-05-08T00:11:04.993Z,15.23
2023-05-08T00:13:32.032Z,15.93
2023-05-08T00:15:59.083Z,15.90
2023-05-08T00:18:26.498Z,14.70
2023-05-08T00:20:53.617Z,17.40
2023-05-08T00:23:22.132Z,17.48
2023-05-08T00:25:49.414Z,16.67
2023-05-08T00:28:16.572Z,17.65
2023-05-08T00:30:43.696Z,16.05
2023-05-08T00:33:11.552Z,18.25
2023-05-08T00:35:41.101Z,17.30
2023-05-08T00:38:08.198Z,19.20
2023-05-08T00:40:35.301Z,19.75
2023-05-08T00:43:02.376Z,18.73
2023-05-08T00:45:33.616Z,20.83
2023-05-08T00:48:00.839Z,20.20
2023-05-08T00:50:27.965Z,18.30
2023-05-08T00:52:58.734Z,21.98
2023-05-08T00:55:25.777Z,17.17
2023-05-08T00:57:53.068Z,20.00
2023-05-08T01:00:21.614Z,19.02
2023-05-08T01:02:48.770Z,17.83
2023-05-08T01:05:15.930Z,21.92
2023-05-08T01:07:43.389Z,21.48
2023-05-08T01:10:11.012Z,20.25
2023-05-08T01:12:38.285Z,18.50
2023-05-08T01:15:28.717Z,19.40
2023-05-08T01:18:05.927Z,18.77
2023-05-08T01:20:36.509Z,20.63
2023-05-08T01:23:18.674Z,22.08
2023-05-08T01:28:32.037Z,21.20
2023-05-08T01:31:18.633Z,21.13
2023-05-08T01:34:06.991Z,21.77
2023-05-08T01:36:52.840Z,21.80
2023-05-08T01:39:22.201Z,19.52
2023-05-08T01:42:01.294Z,21.52
2023-05-08T01:44:31.335Z,22.27
2023-05-08T01:46:59.378Z,21.20
2023-05-08T01:49:35.115Z,22.10
2023-05-08T01:52:08.532Z,23.08
2023-05-08T01:54:39.724Z,24.00
2023-05-08T01:57:08.110Z,24.42
2023-05-08T01:59:36.001Z,23.08
2023-05-08T02:02:03.420Z,23.05
2023-05-08T02:04:31.280Z,21.63
2023-05-08T02:06:59.431Z,20.95
2023-05-08T02:09:27.303Z,21.85
2023-05-08T02:11:55.785Z,20.13
2023-05-08T02:14:23.321Z,22.23
2023-05-08T02:16:51.876Z,22.27
2023-05-08T02:19:20.898Z,22.27
2023-05-08T02:21:49.114Z,21.63
2023-05-08T02:24:16.430Z,20.38
2023-05-08T02:26:44.713Z,21.60
2023-05-08T02:29:11.930Z,20.33
2023-05-08T02:31:39.313Z,24.58
2023-05-08T02:34:07.225Z,21.90
2023-05-08T02:36:35.147Z,20.48
2023-05-08T02:39:02.878Z,20.67
2023-05-08T02:41:31.756Z,18.33
2023-05-08T02:43:59.150Z,21.42
2023-05-08T02:46:40.325Z,19.95
2023-05-08T02:49:24.525Z,20.67
2023-05-08T02:51:55.514Z,19.40
2023-05-08T02:54:26.251Z,19.70
2023-05-08T02:57:02.384Z,20.45
2023-05-08T02:59:32.015Z,19.40
2023-05-08T03:02:07.555Z,23.23
2023-05-08T03:04:41.223Z,20.92
2023-05-08T03:07:08.672Z,21.33
2023-05-08T03:09:46.047Z,20.05
2023-05-08T03:12:17.959Z,21.15
2023-05-08T03:17:13.774Z,19.15
2023-05-08T03:19:42.689Z,21.83
2023-05-08T03:22:10.872Z,22.05
2023-05-08T03:24:39.356Z,21.55
2023-05-08T03:27:06.639Z,19.05
2023-05-08T03:29:34.729Z,24.75
2023-05-08T03:32:02.741Z,21.42
2023-05-08T03:34:30.639Z,20.88
2023-05-08T03:36:57.807Z,21.55
2023-05-08T03:39:26.805Z,20.73
2023-05-08T03:41:54.065Z,22.38
2023-05-08T03:44:21.352Z,21.90
2023-05-08T03:46:50.800Z,21.13
2023-05-08T03:49:18.257Z,30.25
2023-05-08T03:51:45.308Z,23.63
2023-05-08T03:54:12.324Z,20.85
2023-05-08T03:56:39.412Z,23.08
2023-05-08T03:59:14.624Z,22.52
2023-05-08T04:01:49.468Z,20.92
2023-05-08T04:04:21.660Z,21.80
2023-05-08T04:06:50.482Z,21.45
2023-05-08T04:09:20.440Z,23.05
2023-05-08T04:11:53.613Z,20.90
2023-05-08T04:14:21.935Z,20.45
2023-05-08T04:16:50.237Z,21.58
2023-05-08T04:19:24.941Z,22.15
2023-05-08T04:21:55.605Z,20.42
2023-05-08T04:24:23.499Z,19.50
2023-05-08T04:26:50.681Z,22.17
2023-05-08T04:29:18.518Z,20.48
2023-05-08T04:31:46.316Z,20.52
2023-05-08T04:34:13.476Z,18.10
2023-05-08T04:36:40.865Z,20.70
2023-05-08T04:39:07.903Z,19.90
2023-05-08T04:41:35.567Z,20.85
2023-05-08T04:44:03.864Z,18.88
2023-05-08T04:46:31.009Z,19.15
2023-05-08T04:48:58.140Z,21.25
2023-05-08T04:51:25.237Z,19.25
2023-05-08T04:53:52.367Z,18.52
2023-05-08T04:56:19.653Z,22.17
2023-05-08T04:58:46.692Z,19.52
2023-05-08T05:01:13.701Z,17.85
2023-05-08T05:03:40.771Z,20.75
2023-05-08T05:06:07.893Z,18.90
2023-05-08T05:08:34.949Z,17.23
2023-05-08T05:11:02.041Z,18.55
2023-05-08T05:13:29.354Z,18.90
2023-05-08T05:15:56.580Z,16.52
2023-05-08T05:18:23.702Z,15.60
2023-05-08T05:20:50.749Z,16.20
2023-05-08T05:23:17.916Z,13.95
2023-05-08T05:25:44.980Z,12.77
2023-05-08T05:28:12.033Z,10.25
2023-05-08T05:30:39.123Z,8.52
2023-05-08T05:33:06.272Z,10.30
2023-05-08T05:35:33.436Z,10.02
2023-05-08T05:38:00.596Z,9.98
2023-05-08T05:40:27.664Z,9.68
2023-05-08T05:42:54.753Z,9.38
2023-05-08T05:45:21.926Z,9.00
2023-05-08T05:47:50.116Z,10.52
2023-05-08T05:50:18.797Z,9.00
2023-05-08T05:52:46.039Z,9.25
2023-05-08T05:55:13.472Z,11.45
2023-05-08T05:57:40.701Z,9.52
2023-05-08T06:00:08.833Z,9.07
2023-05-08T06:02:37.021Z,8.60
2023-05-08T06:05:04.904Z,8.73
2023-05-08T06:07:32.022Z,8.55
2023-05-08T06:09:59.677Z,7.55
2023-05-08T06:12:28.329Z,7.55
2023-05-08T06:14:55.810Z,8.95
2023-05-08T06:17:23.090Z,7.25
2023-05-08T06:19:53.838Z,7.68
2023-05-08T06:22:24.596Z,8.27
2023-05-08T06:24:54.942Z,8.75
2023-05-08T06:27:22.804Z,8.18
2023-05-08T06:29:53.360Z,10.27
2023-05-08T06:32:21.176Z,7.40
2023-05-08T06:34:48.537Z,6.63
2023-05-08T06:37:15.804Z,6.47
2023-05-08T06:39:42.835Z,8.80
2023-05-08T06:42:10.121Z,6.88
2023-05-08T06:44:37.209Z,8.65
2023-05-08T06:47:04.274Z,7.60
2023-05-08T06:49:31.320Z,7.25
2023-05-08T06:51:58.504Z,6.47
2023-05-08T06:54:25.689Z,7.05
2023-05-08T06:56:55.575Z,9.20
2023-05-08T06:59:25.790Z,7.28
2023-05-08T07:01:52.930Z,7.22
2023-05-08T07:04:20.320Z,8.05
2023-05-08T07:06:47.489Z,6.88
2023-05-08T07:09:15.175Z,7.38
2023-05-08T07:11:42.367Z,6.78
2023-05-08T07:14:09.433Z,7.55
2023-05-08T07:16:37.732Z,8.55
2023-05-08T07:19:04.937Z,8.20
2023-05-08T07:21:32.046Z,7.47
2023-05-08T07:23:59.192Z,7.97
2023-05-08T07:26:26.461Z,9.95
2023-05-08T07:28:54.258Z,9.85
2023-05-08T07:31:21.879Z,8.35
2023-05-08T07:33:48.994Z,7.88
2023-05-08T07:36:16.096Z,9.60
2023-05-08T07:38:43.196Z,8.90
2023-05-08T07:41:10.387Z,11.85
2023-05-08T07:43:38.036Z,9.48
2023-05-08T07:46:05.975Z,9.07
2023-05-08T07:48:33.169Z,8.95
2023-05-08T07:51:00.242Z,8.07
2023-05-08T07:53:27.428Z,8.95
2023-05-08T07:55:54.472Z,8.35
2023-05-08T07:58:23.678Z,8.60
2023-05-08T08:00:51.217Z,9.38
2023-05-08T08:03:18.405Z,9.27
2023-05-08T08:05:45.737Z,10.02
2023-05-08T08:08:12.756Z,11.13
2023-05-08T08:10:39.820Z,9.63
2023-05-08T08:13:07.148Z,9.85
2023-05-08T08:15:34.241Z,9.85
2023-05-08T08:18:01.610Z,10.93
2023-05-08T08:20:28.764Z,10.70
2023-05-08T08:22:55.831Z,9.65
2023-05-08T08:25:22.994Z,9.18
2023-05-08T08:27:50.113Z,10.07
2023-05-08T08:30:18.621Z,10.63
2023-05-08T08:32:46.178Z,11.32
2023-05-08T08:35:13.778Z,8.65
2023-05-08T08:37:41.213Z,11.27
2023-05-08T08:40:08.512Z,12.45
2023-05-08T08:42:35.780Z,11.20
2023-05-08T08:45:03.232Z,10.88
2023-05-08T08:47:33.560Z,10.60
2023-05-08T08:50:03.198Z,12.05
2023-05-08T08:52:36.374Z,11.63
2023-05-08T08:55:05.486Z,11.30
2023-05-08T08:57:33.950Z,10.40
2023-05-08T09:00:04.604Z,13.27
2023-05-08T09:02:32.273Z,11.07
2023-05-08T09:04:59.524Z,11.82
2023-05-08T09:07:27.312Z,11.15
2023-05-08T09:09:54.814Z,10.85
2023-05-08T09:12:21.992Z,10.63
2023-05-08T09:14:49.067Z,10.05
2023-05-08T09:17:16.129Z,10.75
2023-05-08T09:19:43.688Z,10.68
2023-05-08T09:22:11.347Z,10.50
2023-05-08T09:24:57.696Z,10.23
2023-05-08T09:27:25.555Z,11.65
2023-05-08T09:30:09.114Z,11.65
2023-05-08T09:32:37.237Z,9.77
2023-05-08T09:35:04.839Z,9.68
2023-05-08T09:37:31.991Z,10.38
2023-05-08T09:40:15.365Z,11.45
2023-05-08T09:42:42.586Z,10.98
2023-05-08T09:45:09.968Z,10.75
2023-05-08T09:47:40.388Z,7.80
2023-05-08T09:50:08.007Z,9.00
2023-05-08T09:52:36.584Z,9.52
2023-05-08T09:55:10.869Z,9.63
2023-05-08T09:57:39.711Z,11.55
2023-05-08T10:00:07.966Z,13.38
2023-05-08T10:02:35.789Z,9.77
2023-05-08T10:05:04.437Z,9.52
2023-05-08T10:07:38.640Z,10.55
2023-05-08T10:10:07.028Z,9.98
2023-05-08T10:12:34.394Z,10.38
2023-05-08T10:15:01.452Z,10.95
2023-05-08T10:17:38.890Z,10.10
2023-05-08T10:20:07.579Z,10.05
2023-05-08T10:22:37.236Z,12.10
2023-05-08T10:25:05.117Z,13.60
2023-05-08T10:27:35.988Z,12.25
2023-05-08T10:30:04.301Z,11.77
2023-05-08T10:32:34.910Z,10.32
2023-05-08T10:35:03.940Z,10.68
2023-05-08T10:37:31.366Z,11.77
2023-05-08T10:39:59.004Z,11.68
2023-05-08T10:42:26.630Z,11.23
2023-05-08T10:44:54.576Z,10.27
2023-05-08T10:47:45.972Z,12.63
2023-05-08T10:50:29.690Z,13.05
2023-05-08T10:52:59.643Z,11.98
2023-05-08T10:55:37.383Z,10.80
2023-05-08T10:58:07.224Z,12.07
2023-05-08T11:00:54.306Z,10.05
2023-05-08T11:03:31.393Z,12.73
2023-05-08T11:05:59.725Z,11.18
2023-05-08T11:08:27.683Z,11.32
2023-05-08T11:11:01.704Z,12.43
2023-05-08T11:13:28.912Z,10.65
2023-05-08T11:15:56.037Z,9.23
2023-05-08T11:18:26.358Z,10.55
2023-05-08T11:20:57.514Z,13.05
2023-05-08T11:23:24.590Z,10.73
2023-05-08T11:26:01.588Z,9.75
2023-05-08T11:28:32.683Z,10.32
2023-05-08T11:31:07.920Z,11.77
2023-05-08T11:33:40.953Z,11.73
2023-05-08T11:36:08.528Z,10.98
2023-05-08T11:38:38.036Z,11.68
2023-05-08T11:41:05.272Z,10.95
2023-05-08T11:43:37.261Z,10.73
2023-05-08T11:46:05.835Z,13.05
2023-05-08T11:48:33.403Z,13.07
2023-05-08T11:51:00.788Z,9.27
2023-05-08T11:53:28.425Z,10.25
2023-05-08T11:55:55.813Z,10.55
2023-05-08T11:58:23.114Z,10.80
2023-05-08T12:00:50.596Z,11.18
2023-05-08T12:03:19.052Z,11.57
2023-05-08T12:05:46.982Z,11.02
2023-05-08T12:08:15.057Z,10.07
2023-05-08T12:10:49.830Z,11.07
2023-05-08T12:13:18.606Z,10.68
2023-05-08T12:15:49.758Z,12.40
2023-05-08T12:18:17.321Z,10.98
2023-05-08T12:20:44.847Z,13.48
2023-05-08T12:23:12.120Z,12.25
2023-05-08T12:25:39.797Z,9.40
2023-05-08T12:28:07.752Z,11.32
2023-05-08T12:30:34.873Z,10.80
2023-05-08T12:33:02.905Z,8.60
2023-05-08T12:35:30.342Z,8.82
2023-05-08T12:38:03.943Z,8.23
2023-05-08T12:40:35.129Z,11.52
2023-05-08T12:43:02.986Z,9.95
2023-05-08T12:45:42.806Z,12.20
2023-05-08T12:48:11.568Z,12.95
2023-05-08T12:50:40.140Z,13.57
2023-05-08T12:53:11.150Z,13.48
2023-05-08T12:58:07.301Z,18.02
2023-05-08T13:00:39.112Z,14.65
2023-05-08T13:03:07.387Z,15.23
2023-05-08T13:05:36.842Z,12.30
2023-05-08T13:08:10.807Z,14.70
2023-05-08T13:10:47.936Z,12.82
2023-05-08T13:13:15.632Z,14.52
2023-05-08T13:15:43.123Z,14.82
2023-05-08T13:18:10.506Z,14.15
2023-05-08T13:20:37.963Z,14.98
2023-05-08T13:23:05.388Z,13.80
2023-05-08T13:25:33.054Z,13.40
2023-05-08T13:28:00.507Z,13.32
2023-05-08T13:30:28.065Z,16.02
2023-05-08T13:32:55.397Z,15.45
2023-05-08T13:35:22.763Z,16.17
2023-05-08T13:37:50.804Z,17.55
2023-05-08T13:40:18.251Z,16.73
2023-05-08T13:42:45.342Z,15.05
2023-05-08T13:45:16.435Z,14.68
2023-05-08T13:47:43.756Z,14.65
2023-05-08T13:50:11.253Z,15.73
2023-05-08T13:52:38.981Z,15.95
2023-05-08T13:55:10.366Z,16.25
2023-05-08T13:57:37.500Z,16.95
2023-05-08T14:00:05.315Z,19.02
2023-05-08T14:02:32.426Z,17.30
2023-05-08T14:04:59.493Z,16.55
2023-05-08T14:07:28.037Z,18.85
2023-05-08T14:09:55.114Z,18.15
2023-05-08T14:12:22.187Z,19.73
2023-05-08T14:14:49.385Z,21.23
2023-05-08T14:17:16.514Z,19.15
2023-05-08T14:19:43.572Z,18.85
2023-05-08T14:22:10.634Z,18.55
2023-05-08T14:24:37.805Z,17.33
2023-05-08T14:27:06.276Z,18.48
2023-05-08T14:29:34.268Z,18.73
2023-05-08T14:32:01.678Z,15.52
2023-05-08T14:34:29.037Z,13.60
2023-05-08T14:36:56.181Z,14.25
2023-05-08T14:39:23.516Z,12.40
2023-05-08T14:42:14.105Z,15.60
2023-05-08T14:44:37.879Z,14.50
2023-05-08T14:47:05.081Z,16.00
2023-05-08T14:52:19.552Z,14.98
2023-05-08T14:54:52.877Z,15.43
2023-05-08T14:57:20.720Z,16.33
2023-05-08T15:02:37.336Z,17.38
2023-05-08T15:07:51.973Z,16.35
2023-05-08T15:10:19.261Z,15.02
2023-05-08T15:12:46.522Z,15.30
2023-05-08T15:15:13.826Z,13.98
2023-05-08T15:17:41.666Z,13.15
2023-05-08T15:20:09.470Z,14.00
2023-05-08T15:22:37.195Z,15.38
2023-05-08T15:25:06.764Z,12.77
2023-05-08T15:27:33.805Z,15.50
2023-05-08T15:30:00.903Z,16.80
2023-05-08T15:32:27.990Z,18.30
2023-05-08T15:34:55.873Z,18.20
2023-05-08T15:37:23.085Z,16.73
2023-05-08T15:39:50.223Z,17.65
2023-05-08T15:42:18.021Z,18.55
2023-05-08T15:47:15.038Z,16.08
2023-05-08T15:49:42.183Z,14.02
2023-05-08T15:52:09.270Z,14.10
2023-05-08T15:54:36.421Z,16.05
2023-05-08T15:57:03.558Z,14.88
2023-05-08T15:59:30.612Z,17.40
2023-05-08T16:01:57.663Z,20.02
2023-05-08T16:04:24.761Z,17.70
2023-05-08T16:06:51.855Z,18.20
2023-05-08T16:09:18.964Z,21.67
2023-05-08T16:11:46.006Z,23.65
2023-05-08T16:14:13.066Z,18.65
2023-05-08T16:16:41.173Z,20.88
2023-05-08T16:19:08.221Z,22.40
2023-05-08T16:21:36.041Z,26.77
2023-05-08T16:24:03.576Z,25.13
2023-05-08T16:26:30.806Z,24.05
2023-05-08T16:28:57.929Z,26.25
2023-05-08T16:31:25.046Z,26.85
2023-05-08T16:33:52.121Z,29.40
2023-05-08T16:36:19.225Z,31.73
2023-05-08T16:38:46.592Z,30.38
2023-05-08T16:41:14.016Z,28.80
2023-05-08T16:43:41.142Z,30.45
2023-05-08T16:46:08.483Z,27.10
2023-05-08T16:48:35.641Z,28.77
2023-05-08T16:51:02.820Z,30.20
2023-05-08T16:53:31.894Z,29.42
2023-05-08T16:56:00.016Z,26.02
2023-05-08T16:58:27.804Z,29.88
2023-05-08T17:00:54.852Z,28.05
2023-05-08T17:03:22.191Z,27.30
2023-05-08T17:05:49.540Z,30.90
2023-05-08T17:08:17.664Z,30.58
2023-05-08T17:10:44.703Z,29.55
2023-05-08T17:13:11.771Z,35.97
2023-05-08T17:15:39.220Z,33.47
2023-05-08T17:18:06.404Z,34.72
2023-05-08T17:20:40.555Z,34.30
2023-05-08T17:23:07.944Z,36.30
2023-05-08T17:25:35.837Z,32.97
2023-05-08T17:28:03.167Z,32.42
2023-05-08T17:30:31.376Z,31.77
2023-05-08T17:32:59.098Z,31.73
2023-05-08T17:35:26.477Z,32.13
2023-05-08T17:37:53.622Z,33.25
2023-05-08T17:40:20.759Z,31.80
2023-05-08T17:42:47.810Z,34.72
2023-05-08T17:45:14.817Z,33.65
2023-05-08T17:47:42.049Z,32.60
2023-05-08T17:50:09.579Z,33.65
2023-05-08T17:52:36.893Z,33.58
2023-05-08T17:55:04.264Z,32.72
2023-05-08T17:57:31.431Z,33.50
2023-05-08T17:59:58.657Z,31.80
2023-05-08T18:02:25.765Z,34.92
2023-05-08T18:04:52.992Z,34.55
2023-05-08T18:07:20.196Z,34.78
2023-05-08T18:09:47.295Z,35.63
2023-05-08T18:12:14.563Z,32.40
2023-05-08T18:14:43.279Z,34.35
2023-05-08T18:17:12.034Z,36.22
2023-05-08T18:19:39.196Z,32.10
2023-05-08T18:22:06.332Z,32.10
2023-05-08T18:24:33.494Z,37.22
2023-05-08T18:27:00.647Z,34.45
2023-05-08T18:29:27.791Z,37.30
2023-05-08T18:31:54.978Z,31.85
2023-05-08T18:34:22.205Z,35.35
2023-05-08T18:36:50.516Z,39.13
2023-05-08T18:39:17.765Z,35.85
2023-05-08T18:41:44.897Z,36.65
2023-05-08T18:44:12.074Z,38.90
2023-05-08T18:46:40.842Z,40.90
2023-05-08T18:49:08.130Z,38.97
2023-05-08T18:51:35.439Z,39.20
2023-05-08T18:54:02.537Z,39.03
2023-05-08T18:56:29.948Z,39.30
2023-05-08T18:58:57.123Z,43.15
2023-05-08T19:01:24.474Z,41.83
2023-05-08T19:03:51.848Z,42.00
2023-05-08T19:06:19.357Z,43.85
2023-05-08T19:08:47.402Z,45.75
2023-05-08T19:11:14.854Z,48.50
2023-05-08T19:13:42.048Z,43.53
2023-05-08T19:16:09.283Z,47.25
2023-05-08T19:18:36.401Z,45.58
2023-05-08T19:21:03.596Z,44.00
2023-05-08T19:23:30.691Z,46.20
2023-05-08T19:25:57.911Z,44.97
2023-05-08T19:28:25.135Z,47.55
2023-05-08T19:30:52.174Z,43.20
2023-05-08T19:33:22.202Z,42.42
2023-05-08T19:35:49.448Z,42.90
2023-05-08T19:38:16.605Z,45.83
2023-05-08T19:40:55.500Z,48.53
2023-05-08T19:43:24.093Z,46.05
2023-05-08T19:45:51.300Z,50.28
2023-05-08T19:48:20.125Z,48.85
2023-05-08T19:50:47.551Z,49.45
2023-05-08T19:53:14.802Z,42.78
2023-05-08T19:55:42.112Z,43.05
2023-05-08T19:58:09.254Z,41.40
2023-05-08T20:00:36.358Z,44.38
2023-05-08T20:03:03.532Z,39.38
2023-05-08T20:05:31.210Z,40.83
2023-05-08T20:07:58.419Z,40.70
2023-05-08T20:10:25.683Z,47.40
2023-05-08T20:12:52.857Z,46.20
2023-05-08T20:15:20.472Z,47.30
2023-05-08T20:17:47.590Z,46.33
2023-05-08T20:20:14.907Z,48.15
2023-05-08T20:22:42.164Z,50.80
2023-05-08T20:25:09.566Z,46.20
2023-05-08T20:27:36.694Z,44.55
2023-05-08T20:30:03.894Z,51.53
2023-05-08T20:32:31.145Z,54.13
2023-05-08T20:34:58.256Z,58.00
2023-05-08T20:37:25.427Z,62.88
2023-05-08T20:39:52.478Z,63.53
2023-05-08T20:42:19.602Z,62.72
2023-05-08T20:44:46.670Z,67.47
2023-05-08T20:47:13.783Z,68.70
2023-05-08T20:49:40.818Z,66.25
2023-05-08T20:52:07.911Z,69.32
2023-05-08T20:54:34.961Z,71.95
2023-05-08T20:57:02.059Z,68.65
2023-05-08T20:59:29.168Z,70.63
2023-05-08T21:01:56.335Z,63.70
2023-05-08T21:04:23.421Z,80.32
2023-05-08T21:06:52.027Z,76.65
2023-05-08T21:09:19.565Z,71.40
2023-05-08T21:11:46.610Z,70.68
2023-05-08T21:14:13.763Z,76.07
2023-05-08T21:16:41.088Z,73.20
2023-05-08T21:19:09.858Z,69.75
2023-05-08T21:21:36.880Z,73.53
2023-05-08T21:24:04.582Z,75.20
2023-05-08T21:26:31.792Z,69.72
2023-05-08T21:29:00.103Z,64.95
2023-05-08T21:31:28.781Z,73.00
2023-05-08T21:33:55.941Z,73.63
2023-05-08T21:36:22.976Z,83.03
2023-05-08T21:38:50.066Z,75.75
2023-05-08T21:41:17.164Z,74.28
2023-05-08T21:43:44.313Z,70.82
2023-05-08T21:46:11.458Z,75.45
2023-05-08T21:48:38.504Z,81.50
2023-05-08T21:51:06.282Z,74.50
2023-05-08T21:53:33.310Z,74.78
2023-05-08T21:56:00.640Z,71.25
2023-05-08T21:58:27.682Z,75.25
2023-05-08T22:00:56.329Z,80.43
2023-05-08T22:03:25.184Z,74.65
2023-05-08T22:05:52.431Z,71.03
2023-05-08T22:08:19.527Z,67.40
2023-05-08T22:10:46.822Z,80.80
2023-05-08T22:13:14.238Z,74.65
2023-05-08T22:15:41.343Z,76.25
2023-05-08T22:18:08.653Z,83.70
2023-05-08T22:20:35.824Z,82.55
2023-05-08T22:23:02.953Z,75.20
2023-05-08T22:25:30.012Z,78.43
2023-05-08T22:27:57.172Z,70.22
2023-05-08T22:30:24.412Z,66.30
2023-05-08T22:32:57.209Z,77.10
2023-05-08T22:35:25.754Z,71.53
2023-05-08T22:37:53.461Z,69.70
2023-05-08T22:40:21.458Z,75.82
2023-05-08T22:42:48.650Z,65.50
2023-05-08T22:45:16.248Z,69.30
2023-05-08T22:47:43.756Z,82.63
2023-05-08T22:50:11.728Z,71.63
2023-05-08T22:52:39.358Z,75.65
2023-05-08T22:55:07.136Z,80.80
2023-05-08T22:57:34.232Z,74.57
2023-05-08T23:00:01.275Z,86.75
2023-05-08T23:02:35.061Z,72.95
2023-05-08T23:05:02.363Z,77.45
2023-05-08T23:07:30.118Z,86.43
2023-05-08T23:09:57.260Z,75.68
2023-05-08T23:12:24.412Z,75.75
2023-05-08T23:14:51.595Z,79.53
2023-05-08T23:17:18.664Z,73.97
2023-05-08T23:19:45.898Z,78.85
2023-05-08T23:22:13.192Z,74.70
2023-05-08T23:24:40.352Z,65.85
2023-05-08T23:27:07.423Z,69.65
2023-05-08T23:29:34.673Z,71.57
2023-05-08T23:32:01.687Z,70.82
2023-05-08T23:34:28.737Z,72.90
2023-05-08T23:36:55.887Z,69.93
2023-05-08T23:39:22.970Z,78.85
2023-05-08T23:41:50.095Z,73.25
2023-05-08T23:44:18.030Z,74.90
2023-05-08T23:46:45.234Z,69.43
2023-05-08T23:49:12.675Z,72.32
2023-05-08T23:51:39.950Z,67.80
2023-05-08T23:54:07.083Z,68.55
2023-05-08T23:56:34.227Z,67.05
2023-05-08T23:59:01.394Z,59.08
